• pl
  • eng

Awiacja
Click on the bold red name to decode a message. 01:00 01.01.1970

METAR EPBY 251930Z 03006KT CAVOK 17/14 Q1022 =

METAR EPGD 251930Z 04005KT CAVOK 16/12 Q1022 =

METAR EPKK 251930Z 02009KT 9999 FEW060 18/12 Q1020 =

METAR EPKT 251930Z 03005KT CAVOK 17/11 Q1020 =

METAR EPLB 251930Z VRB01KT CAVOK 17/14 Q1021 =

METAR EPLL 251930Z VRB02KT CAVOK 14/13 Q1021 =

METAR EPMO 251930Z 06004KT CAVOK 18/11 Q1021 =

METAR EPPO 251930Z 05003KT CAVOK 16/12 Q1022 =

METAR EPRA 251930Z NIL=

METAR EPRZ 251930Z 02005KT 9999 FEW050CB 17/15 Q1021 =

METAR EPSC 251930Z 07005KT 040V110 CAVOK 19/10 Q1022 =

METAR EPSY 251930Z VRB01KT CAVOK 14/13 Q1022=

METAR EPWA 251930Z 06006KT CAVOK 21/11 Q1021 NOSIG=

METAR EPWR 251930Z 06004KT CAVOK 17/10 Q1021 =

METAR EPZG 251930Z VRB02KT CAVOK 18/09 Q1021 =
Awiacja.imgw.pl jest pogodowym serwisem informacyjnym
Instytutu Meteorologii i Gospodarki Wodnej Państwowego Instytutu Badawczego.
Copyright IMGW PIB 2009-2011© Wszelkie prawa zastrzeżone.